createdAt,value
2023-05-13T00:02:21.718Z,101280.95
2023-05-13T00:04:53.963Z,101281.79
2023-05-13T00:07:26.449Z,101278.09
2023-05-13T00:09:59.156Z,101281.67
2023-05-13T00:12:32.418Z,101278.96
2023-05-13T00:15:04.827Z,101279.33
2023-05-13T00:17:37.231Z,101280.20
2023-05-13T00:20:11.331Z,101276.13
2023-05-13T00:22:43.571Z,101277.84
2023-05-13T00:25:15.894Z,101274.52
2023-05-13T00:27:48.497Z,101278.40
2023-05-13T00:30:21.163Z,101273.59
2023-05-13T00:32:53.455Z,101277.96
2023-05-13T00:35:26.022Z,101278.66
2023-05-13T00:37:59.391Z,101276.21
2023-05-13T00:40:31.948Z,101274.35
2023-05-13T00:43:04.772Z,101274.55
2023-05-13T00:45:39.551Z,101276.39
2023-05-13T00:48:11.972Z,101274.59
2023-05-13T00:50:44.896Z,101277.26
2023-05-13T00:53:18.150Z,101279.52
2023-05-13T00:55:50.384Z,101282.05
2023-05-13T00:58:22.536Z,101274.98
2023-05-13T01:01:04.529Z,101287.53
2023-05-13T01:03:45.538Z,101285.51
2023-05-13T01:06:22.456Z,101284.95
2023-05-13T01:09:02.807Z,101285.15
2023-05-13T01:11:42.311Z,101284.92
2023-05-13T01:14:18.447Z,101287.42
2023-05-13T01:16:56.901Z,101290.95
2023-05-13T01:19:40.224Z,101292.56
2023-05-13T01:22:12.708Z,101294.23
2023-05-13T01:24:45.773Z,101297.31
2023-05-13T01:27:18.549Z,101296.08
2023-05-13T01:29:51.766Z,101300.98
2023-05-13T01:32:27.364Z,101286.88
2023-05-13T01:35:01.897Z,101297.61
2023-05-13T01:37:33.224Z,101296.41
2023-05-13T01:40:24.393Z,101297.19
2023-05-13T01:42:59.359Z,101292.84
2023-05-13T01:45:33.506Z,101295.94
2023-05-13T01:48:06.767Z,101298.95
2023-05-13T01:50:45.490Z,101297.39
2023-05-13T01:53:17.943Z,101298.76
2023-05-13T01:55:51.678Z,101303.67
2023-05-13T01:58:23.925Z,101288.98
2023-05-13T02:00:56.059Z,101303.58
2023-05-13T02:03:28.360Z,101302.60
2023-05-13T02:06:00.915Z,101303.30
2023-05-13T02:08:33.202Z,101303.14
2023-05-13T02:11:05.604Z,101304.42
2023-05-13T02:13:38.316Z,101304.20
2023-05-13T02:16:12.324Z,101305.64
2023-05-13T02:18:45.266Z,101303.09
2023-05-13T02:21:17.428Z,101302.05
2023-05-13T02:23:50.115Z,101306.67
2023-05-13T02:26:22.342Z,101301.33
2023-05-13T02:28:54.653Z,101304.05
2023-05-13T02:31:26.827Z,101301.69
2023-05-13T02:33:58.901Z,101303.66
2023-05-13T02:36:31.235Z,101304.63
2023-05-13T02:39:04.069Z,101305.04
2023-05-13T02:41:36.555Z,101299.35
2023-05-13T02:44:08.985Z,101302.55
2023-05-13T02:46:41.270Z,101300.31
2023-05-13T02:49:14.195Z,101300.60
2023-05-13T02:51:46.375Z,101308.68
2023-05-13T02:54:19.166Z,101305.70
2023-05-13T02:56:51.324Z,101304.05
2023-05-13T02:59:23.553Z,101306.56
2023-05-13T03:01:56.712Z,101310.69
2023-05-13T03:04:29.030Z,101311.90
2023-05-13T03:07:01.371Z,101311.87
2023-05-13T03:09:35.180Z,101311.98
2023-05-13T03:12:08.638Z,101315.30
2023-05-13T03:14:41.417Z,101312.22
2023-05-13T03:17:13.925Z,101313.75
2023-05-13T03:19:46.321Z,101314.09
2023-05-13T03:22:19.681Z,101311.69
2023-05-13T03:24:52.166Z,101314.14
2023-05-13T03:27:25.126Z,101311.91
2023-05-13T03:29:57.595Z,101312.96
2023-05-13T03:32:30.908Z,101312.33
2023-05-13T03:35:04.447Z,101319.03
2023-05-13T03:37:37.386Z,101312.36
2023-05-13T03:40:13.114Z,101300.95
2023-05-13T03:42:45.568Z,101316.19
2023-05-13T03:45:18.350Z,101320.23
2023-05-13T03:47:52.890Z,101321.40
2023-05-13T03:50:25.719Z,101323.04
2023-05-13T03:52:58.605Z,101325.96
2023-05-13T03:55:31.411Z,101317.54
2023-05-13T03:58:11.790Z,101329.75
2023-05-13T04:00:47.308Z,101321.10
2023-05-13T04:03:20.097Z,101333.17
2023-05-13T04:05:54.826Z,101335.01
2023-05-13T04:08:27.358Z,101338.17
2023-05-13T04:10:59.564Z,101340.49
2023-05-13T04:13:31.936Z,101338.36
2023-05-13T04:16:04.875Z,101340.04
2023-05-13T04:18:40.081Z,101340.85
2023-05-13T04:21:12.700Z,101340.42
2023-05-13T04:23:44.931Z,101346.70
2023-05-13T04:26:17.167Z,101335.31
2023-05-13T04:28:49.749Z,101346.10
2023-05-13T04:31:22.470Z,101349.70
2023-05-13T04:33:55.283Z,101351.08
2023-05-13T04:36:28.173Z,101351.21
2023-05-13T04:39:01.404Z,101351.94
2023-05-13T04:41:36.168Z,101358.54
2023-05-13T04:44:09.113Z,101355.63
2023-05-13T04:46:44.743Z,101352.21
2023-05-13T04:49:17.838Z,101352.44
2023-05-13T04:51:50.857Z,101355.40
2023-05-13T04:54:24.171Z,101355.34
2023-05-13T04:56:57.069Z,101359.59
2023-05-13T04:59:29.704Z,101357.43
2023-05-13T05:02:02.554Z,101357.38
2023-05-13T05:04:35.353Z,101357.11
2023-05-13T05:07:10.230Z,101360.09
2023-05-13T05:09:42.801Z,101361.50
2023-05-13T05:12:15.942Z,101361.48
2023-05-13T05:14:48.062Z,101364.10
2023-05-13T05:17:21.674Z,101363.70
2023-05-13T05:19:55.430Z,101371.40
2023-05-13T05:22:27.968Z,101371.64
2023-05-13T05:25:00.296Z,101368.55
2023-05-13T05:27:32.582Z,101367.30
2023-05-13T05:30:06.100Z,101372.24
2023-05-13T05:32:38.923Z,101371.70
2023-05-13T05:35:13.657Z,101373.17
2023-05-13T05:37:46.515Z,101374.05
2023-05-13T05:40:21.781Z,101371.40
2023-05-13T05:42:56.473Z,101373.58
2023-05-13T05:45:28.936Z,101371.19
2023-05-13T05:48:01.595Z,101372.55
2023-05-13T05:50:34.539Z,101374.95
2023-05-13T05:53:08.673Z,101374.13
2023-05-13T05:55:42.745Z,101379.20
2023-05-13T05:58:17.869Z,101375.58
2023-05-13T06:00:50.440Z,101363.80
2023-05-13T06:03:23.353Z,101375.08
2023-05-13T06:05:55.912Z,101374.31
2023-05-13T06:08:30.502Z,101371.67
2023-05-13T06:11:02.815Z,101373.30
2023-05-13T06:13:35.304Z,101367.14
2023-05-13T06:16:08.278Z,101371.95
2023-05-13T06:18:43.289Z,101372.93
2023-05-13T06:21:15.975Z,101380.52
2023-05-13T06:23:48.204Z,101375.23
2023-05-13T06:26:20.908Z,101378.44
2023-05-13T06:28:53.286Z,101376.63
2023-05-13T06:31:25.377Z,101378.05
2023-05-13T06:33:57.647Z,101375.48
2023-05-13T06:36:29.938Z,101374.09
2023-05-13T06:39:02.733Z,101375.70
2023-05-13T06:41:35.742Z,101370.60
2023-05-13T06:44:13.122Z,101375.75
2023-05-13T06:46:46.246Z,101374.88
2023-05-13T06:49:18.583Z,101374.05
2023-05-13T06:51:50.867Z,101367.09
2023-05-13T06:54:23.291Z,101371.73
2023-05-13T06:56:55.431Z,101372.34
2023-05-13T06:59:27.781Z,101370.52
2023-05-13T07:01:59.777Z,101375.01
2023-05-13T07:04:32.203Z,101372.61
2023-05-13T07:07:04.987Z,101371.42
2023-05-13T07:09:37.242Z,101370.16
2023-05-13T07:12:11.255Z,101369.24
2023-05-13T07:14:45.313Z,101368.66
2023-05-13T07:17:18.135Z,101365.73
2023-05-13T07:19:50.221Z,101365.69
2023-05-13T07:22:22.929Z,101366.98
2023-05-13T07:24:55.471Z,101368.14
2023-05-13T07:27:27.894Z,101349.78
2023-05-13T07:30:00.499Z,101364.63
2023-05-13T07:32:33.234Z,101365.63
2023-05-13T07:35:05.820Z,101364.02
2023-05-13T07:37:39.217Z,101354.67
2023-05-13T07:40:14.009Z,101353.39
2023-05-13T07:42:46.676Z,101351.05
2023-05-13T07:45:19.289Z,101349.35
2023-05-13T07:47:51.469Z,101353.54
2023-05-13T07:50:23.646Z,101351.75
2023-05-13T07:52:55.920Z,101352.22
2023-05-13T07:55:28.427Z,101352.85
2023-05-13T07:58:00.623Z,101348.98
2023-05-13T08:00:33.023Z,101349.30
2023-05-13T08:03:05.582Z,101347.76
2023-05-13T08:05:37.874Z,101349.11
2023-05-13T08:08:10.166Z,101348.53
2023-05-13T08:10:42.294Z,101344.56
2023-05-13T08:13:14.491Z,101342.05
2023-05-13T08:15:47.065Z,101347.11
2023-05-13T08:18:19.333Z,101344.98
2023-05-13T08:20:51.663Z,101345.55
2023-05-13T08:23:40.440Z,101345.30
2023-05-13T08:26:17.100Z,101338.98
2023-05-13T08:28:51.078Z,101333.92
2023-05-13T08:31:26.319Z,101337.20
2023-05-13T08:33:58.274Z,101338.30
2023-05-13T08:36:30.965Z,101340.41
2023-05-13T08:39:03.332Z,101328.19
2023-05-13T08:41:37.030Z,101338.80
2023-05-13T08:44:10.461Z,101346.69
2023-05-13T08:46:46.071Z,101348.55
2023-05-13T08:49:18.292Z,101336.41
2023-05-13T08:51:50.913Z,101336.01
2023-05-13T08:54:24.173Z,101337.30
2023-05-13T08:56:56.362Z,101336.16
2023-05-13T08:59:28.451Z,101331.60
2023-05-13T09:02:03.538Z,101337.34
2023-05-13T09:04:38.828Z,101319.87
2023-05-13T09:07:12.056Z,101327.27
2023-05-13T09:09:44.548Z,101321.28
2023-05-13T09:12:45.500Z,101323.46
2023-05-13T09:15:19.178Z,101325.66
2023-05-13T09:17:53.451Z,101322.66
2023-05-13T09:20:26.802Z,101327.02
2023-05-13T09:23:01.541Z,101327.75
2023-05-13T09:25:32.867Z,101323.56
2023-05-13T09:28:07.865Z,101327.59
2023-05-13T09:30:43.923Z,101327.90
2023-05-13T09:33:20.366Z,101326.08
2023-05-13T09:35:54.470Z,101322.70
2023-05-13T09:38:29.111Z,101329.23
2023-05-13T09:41:02.820Z,101331.55
2023-05-13T09:43:36.311Z,101326.20
2023-05-13T09:46:10.240Z,101320.79
2023-05-13T09:48:45.486Z,101316.28
2023-05-13T09:51:19.311Z,101311.11
2023-05-13T09:53:51.517Z,101312.59
2023-05-13T09:56:25.229Z,101321.89
2023-05-13T09:58:58.185Z,101307.04
2023-05-13T10:01:31.639Z,101320.98
2023-05-13T10:04:06.469Z,101314.81
2023-05-13T10:06:40.138Z,101317.34
2023-05-13T10:09:14.764Z,101314.75
2023-05-13T10:11:49.075Z,101312.06
2023-05-13T10:14:21.616Z,101309.64
2023-05-13T10:16:54.078Z,101306.34
2023-05-13T10:19:27.465Z,101305.25
2023-05-13T10:22:00.286Z,101308.80
2023-05-13T10:24:33.104Z,101309.73
2023-05-13T10:27:07.699Z,101309.71
2023-05-13T10:29:39.046Z,101316.29
2023-05-13T10:32:13.931Z,101308.10
2023-05-13T10:34:47.594Z,101310.37
2023-05-13T10:37:51.364Z,101297.48
2023-05-13T10:40:39.827Z,101309.57
2023-05-13T10:43:18.411Z,101311.02
2023-05-13T10:45:53.566Z,101307.34
2023-05-13T10:48:26.103Z,101304.11
2023-05-13T10:51:06.728Z,101308.29
2023-05-13T10:53:45.936Z,101312.20
2023-05-13T10:56:20.992Z,101311.02
2023-05-13T10:59:02.653Z,101303.22
2023-05-13T11:01:39.289Z,101300.09
2023-05-13T11:04:16.475Z,101297.11
2023-05-13T11:06:49.697Z,101304.77
2023-05-13T11:09:33.368Z,101305.02
2023-05-13T11:12:06.994Z,101298.69
2023-05-13T11:14:39.273Z,101291.17
2023-05-13T11:17:14.237Z,101300.88
2023-05-13T11:19:51.481Z,101300.49
2023-05-13T11:22:25.015Z,101298.44
2023-05-13T11:25:16.481Z,101298.65
2023-05-13T11:27:48.878Z,101295.48
2023-05-13T11:30:27.025Z,101296.13
2023-05-13T11:33:01.798Z,101297.77
2023-05-13T11:35:33.229Z,101296.48
2023-05-13T11:38:06.914Z,101299.30
2023-05-13T11:40:39.332Z,101303.05
2023-05-13T11:43:13.546Z,101298.50
2023-05-13T11:45:46.635Z,101297.56
2023-05-13T11:48:23.322Z,101301.32
2023-05-13T11:50:59.592Z,101300.64
2023-05-13T11:53:32.120Z,101301.02
2023-05-13T11:56:13.066Z,101302.66
2023-05-13T11:58:45.466Z,101302.60
2023-05-13T12:01:21.177Z,101298.48
2023-05-13T12:04:02.071Z,101302.77
2023-05-13T12:06:34.516Z,101302.88
2023-05-13T12:09:10.546Z,101303.09
2023-05-13T12:11:43.064Z,101296.11
2023-05-13T12:14:15.325Z,101295.94
2023-05-13T12:16:48.116Z,101296.73
2023-05-13T12:19:22.476Z,101296.23
2023-05-13T12:21:54.897Z,101296.70
2023-05-13T12:24:28.806Z,101295.48
2023-05-13T12:27:10.086Z,101301.20
2023-05-13T12:29:44.730Z,101295.18
2023-05-13T12:32:19.572Z,101297.20
2023-05-13T12:34:52.998Z,101304.67
2023-05-13T12:37:27.477Z,101295.11
2023-05-13T12:40:14.709Z,101295.97
2023-05-13T12:42:48.817Z,101298.90
2023-05-13T12:45:21.592Z,101300.95
2023-05-13T12:47:56.410Z,101295.83
2023-05-13T12:50:28.895Z,101296.38
2023-05-13T12:53:01.528Z,101298.23
2023-05-13T12:55:36.999Z,101303.10
2023-05-13T12:58:12.187Z,101301.11
2023-05-13T13:00:44.633Z,101300.68
2023-05-13T13:03:17.241Z,101299.14
2023-05-13T13:05:49.825Z,101278.31
2023-05-13T13:08:22.010Z,101291.31
2023-05-13T13:10:54.221Z,101283.02
2023-05-13T13:13:27.051Z,101291.63
2023-05-13T13:15:59.446Z,101284.10
2023-05-13T13:18:31.784Z,101281.34
2023-05-13T13:21:05.413Z,101281.41
2023-05-13T13:23:37.957Z,101284.41
2023-05-13T13:26:11.441Z,101281.50
2023-05-13T13:28:43.928Z,101282.46
2023-05-13T13:31:16.837Z,101275.13
2023-05-13T13:33:49.553Z,101281.63
2023-05-13T13:36:21.739Z,101279.80
2023-05-13T13:38:54.568Z,101279.09
2023-05-13T13:41:26.704Z,101281.89
2023-05-13T13:43:58.982Z,101267.11
2023-05-13T13:46:31.325Z,101275.29
2023-05-13T13:49:10.176Z,101267.98
2023-05-13T13:51:47.124Z,101269.28
2023-05-13T13:54:19.417Z,101264.52
2023-05-13T13:56:51.783Z,101264.83
2023-05-13T13:59:24.151Z,101262.06
2023-05-13T14:01:57.076Z,101256.52
2023-05-13T14:04:30.299Z,101237.38
2023-05-13T14:07:02.804Z,101258.46
2023-05-13T14:09:34.886Z,101261.19
2023-05-13T14:12:08.622Z,101257.86
2023-05-13T14:14:41.085Z,101250.15
2023-05-13T14:17:14.410Z,101244.66
2023-05-13T14:19:46.824Z,101240.84
2023-05-13T14:22:19.384Z,101250.98
2023-05-13T14:24:51.614Z,101256.05
2023-05-13T14:27:24.777Z,101252.36
2023-05-13T14:29:57.177Z,101252.53
2023-05-13T14:32:29.517Z,101252.70
2023-05-13T14:35:01.842Z,101252.66
2023-05-13T14:37:34.167Z,101254.85
2023-05-13T14:40:07.415Z,101246.56
2023-05-13T14:42:39.613Z,101253.83
2023-05-13T14:45:16.822Z,101256.39
2023-05-13T14:47:53.704Z,101243.52
2023-05-13T14:50:26.204Z,101250.48
2023-05-13T14:52:58.327Z,101251.34
2023-05-13T14:55:30.585Z,101252.58
2023-05-13T14:58:03.672Z,101236.11
2023-05-13T15:00:37.614Z,101244.75
2023-05-13T15:03:10.563Z,101246.02
2023-05-13T15:05:44.311Z,101241.30
2023-05-13T15:08:17.006Z,101236.80
2023-05-13T15:10:49.274Z,101233.00
2023-05-13T15:13:21.577Z,101235.67
2023-05-13T15:15:53.805Z,101236.29
2023-05-13T15:18:25.974Z,101234.13
2023-05-13T15:20:58.139Z,101234.85
2023-05-13T15:23:30.461Z,101238.80
2023-05-13T15:26:02.624Z,101224.60
2023-05-13T15:28:34.799Z,101239.96
2023-05-13T15:31:07.390Z,101236.86
2023-05-13T15:33:39.461Z,101236.71
2023-05-13T15:36:12.148Z,101241.98
2023-05-13T15:38:44.282Z,101239.17
2023-05-13T15:41:16.862Z,101235.85
2023-05-13T15:43:48.963Z,101228.21
2023-05-13T15:46:21.827Z,101226.47
2023-05-13T15:48:54.212Z,101224.92
2023-05-13T15:51:26.439Z,101223.92
2023-05-13T15:53:59.995Z,101217.11
2023-05-13T15:56:32.276Z,101213.85
2023-05-13T15:59:04.442Z,101214.69
2023-05-13T16:01:37.708Z,101211.87
2023-05-13T16:04:10.457Z,101208.20
2023-05-13T16:06:42.992Z,101207.30
2023-05-13T16:09:15.712Z,101203.44
2023-05-13T16:11:47.956Z,101199.01
2023-05-13T16:14:20.213Z,101197.25
2023-05-13T16:16:52.334Z,101200.78
2023-05-13T16:19:24.626Z,101202.42
2023-05-13T16:21:57.064Z,101197.63
2023-05-13T16:24:29.197Z,101197.78
2023-05-13T16:27:01.296Z,101197.15
2023-05-13T16:29:33.596Z,101195.33
2023-05-13T16:32:06.088Z,101196.08
2023-05-13T16:34:38.457Z,101199.25
2023-05-13T16:37:10.882Z,101198.78
2023-05-13T16:39:43.320Z,101196.73
2023-05-13T16:42:15.762Z,101197.33
2023-05-13T16:44:48.262Z,101196.01
2023-05-13T16:47:20.509Z,101193.52
2023-05-13T16:49:52.650Z,101190.69
2023-05-13T16:52:24.853Z,101189.70
2023-05-13T16:54:58.970Z,101189.17
2023-05-13T16:57:31.607Z,101191.45
2023-05-13T17:00:04.045Z,101189.55
2023-05-13T17:02:36.392Z,101191.33
2023-05-13T17:05:09.656Z,101193.02
2023-05-13T17:07:42.559Z,101187.45
2023-05-13T17:10:15.159Z,101186.75
2023-05-13T17:12:47.922Z,101189.14
2023-05-13T17:15:20.475Z,101181.20
2023-05-13T17:17:52.761Z,101181.29
2023-05-13T17:20:25.545Z,101184.57
2023-05-13T17:22:58.057Z,101183.22
2023-05-13T17:25:30.305Z,101186.92
2023-05-13T17:28:02.328Z,101185.21
2023-05-13T17:30:35.202Z,101186.67
2023-05-13T17:33:07.461Z,101191.02
2023-05-13T17:35:40.003Z,101190.11
2023-05-13T17:38:13.145Z,101192.14
2023-05-13T17:40:45.426Z,101189.08
2023-05-13T17:43:17.670Z,101193.58
2023-05-13T17:45:49.942Z,101193.25
2023-05-13T17:48:22.646Z,101196.27
2023-05-13T17:50:55.305Z,101201.83
2023-05-13T17:53:27.901Z,101188.45
2023-05-13T17:56:00.378Z,101203.84
2023-05-13T17:58:32.555Z,101203.77
2023-05-13T18:01:05.322Z,101208.34
2023-05-13T18:03:37.659Z,101205.39
2023-05-13T18:06:10.813Z,101207.91
2023-05-13T18:08:43.128Z,101202.12
2023-05-13T18:11:15.661Z,101200.35
2023-05-13T18:13:47.975Z,101202.13
2023-05-13T18:16:20.203Z,101201.85
2023-05-13T18:18:52.381Z,101199.63
2023-05-13T18:21:25.056Z,101190.10
2023-05-13T18:23:57.303Z,101199.86
2023-05-13T18:26:29.562Z,101201.48
2023-05-13T18:29:01.950Z,101196.79
2023-05-13T18:31:35.184Z,101185.57
2023-05-13T18:34:08.181Z,101199.82
2023-05-13T18:36:40.502Z,101205.82
2023-05-13T18:39:13.454Z,101208.34
2023-05-13T18:41:45.991Z,101211.02
2023-05-13T18:44:18.178Z,101218.46
2023-05-13T18:46:51.198Z,101218.55
2023-05-13T18:49:23.938Z,101214.02
2023-05-13T18:51:56.270Z,101218.67
2023-05-13T18:54:29.264Z,101218.79
2023-05-13T18:57:01.722Z,101220.69
2023-05-13T18:59:33.893Z,101223.53
2023-05-13T19:02:06.360Z,101224.34
2023-05-13T19:04:38.939Z,101225.92
2023-05-13T19:07:11.605Z,101222.90
2023-05-13T19:09:44.270Z,101227.83
2023-05-13T19:12:16.940Z,101233.01
2023-05-13T19:14:49.401Z,101235.05
2023-05-13T19:17:22.229Z,101230.02
2023-05-13T19:19:55.277Z,101234.89
2023-05-13T19:22:27.631Z,101235.48
2023-05-13T19:24:59.912Z,101233.73
2023-05-13T19:27:32.310Z,101239.13
2023-05-13T19:30:07.252Z,101241.14
2023-05-13T19:32:40.570Z,101246.94
2023-05-13T19:35:13.221Z,101252.08
2023-05-13T19:37:45.374Z,101255.69
2023-05-13T19:40:17.966Z,101254.48
2023-05-13T19:42:50.265Z,101259.44
2023-05-13T19:45:23.589Z,101257.80
2023-05-13T19:47:56.178Z,101247.91
2023-05-13T19:50:28.363Z,101263.00
2023-05-13T19:53:00.736Z,101266.61
2023-05-13T19:55:33.488Z,101264.31
2023-05-13T19:58:05.927Z,101251.14
2023-05-13T20:00:38.062Z,101262.35
2023-05-13T20:03:10.643Z,101256.88
2023-05-13T20:05:43.838Z,101258.73
2023-05-13T20:08:16.510Z,101257.81
2023-05-13T20:10:49.230Z,101257.91
2023-05-13T20:13:21.714Z,101255.98
2023-05-13T20:15:54.523Z,101260.88
2023-05-13T20:18:27.655Z,101252.41
2023-05-13T20:20:59.692Z,101253.70
2023-05-13T20:23:32.054Z,101252.20
2023-05-13T20:26:04.353Z,101252.19
2023-05-13T20:28:37.639Z,101249.81
2023-05-13T20:31:11.699Z,101248.92
2023-05-13T20:33:43.867Z,101234.55
2023-05-13T20:36:16.372Z,101247.35
2023-05-13T20:38:49.448Z,101246.25
2023-05-13T20:41:22.397Z,101249.44
2023-05-13T20:43:54.702Z,101248.61
2023-05-13T20:46:26.977Z,101241.98
2023-05-13T20:48:59.136Z,101235.66
2023-05-13T20:51:31.381Z,101243.52
2023-05-13T20:54:03.710Z,101242.39
2023-05-13T20:56:36.066Z,101244.53
2023-05-13T20:59:08.663Z,101248.42
2023-05-13T21:01:41.536Z,101246.69
2023-05-13T21:04:13.948Z,101248.73
2023-05-13T21:06:46.517Z,101248.83
2023-05-13T21:09:18.997Z,101251.76
2023-05-13T21:11:51.241Z,101249.73
2023-05-13T21:14:23.703Z,101250.64
2023-05-13T21:16:55.860Z,101246.35
2023-05-13T21:19:28.340Z,101246.34
2023-05-13T21:22:01.701Z,101248.23
2023-05-13T21:24:34.395Z,101249.56
2023-05-13T21:27:07.227Z,101248.82
2023-05-13T21:29:39.498Z,101252.65
2023-05-13T21:32:12.049Z,101250.11
2023-05-13T21:34:44.617Z,101249.61
2023-05-13T21:37:16.910Z,101246.95
2023-05-13T21:39:49.436Z,101247.17
2023-05-13T21:42:22.212Z,101250.10
2023-05-13T21:44:54.522Z,101249.52
2023-05-13T21:47:29.006Z,101235.23
2023-05-13T21:50:01.648Z,101248.11
2023-05-13T21:52:34.774Z,101249.21
2023-05-13T21:55:08.055Z,101250.69
2023-05-13T21:57:40.593Z,101250.74
2023-05-13T22:00:15.319Z,101249.19
2023-05-13T22:02:51.648Z,101250.17
2023-05-13T22:05:24.321Z,101236.38
2023-05-13T22:07:56.575Z,101245.67
2023-05-13T22:10:29.233Z,101246.38
2023-05-13T22:13:01.518Z,101251.04
2023-05-13T22:15:34.186Z,101250.11
2023-05-13T22:18:06.899Z,101248.70
2023-05-13T22:20:39.170Z,101252.85
2023-05-13T22:23:11.369Z,101250.33
2023-05-13T22:25:43.728Z,101249.50
2023-05-13T22:28:16.579Z,101242.44
2023-05-13T22:30:50.288Z,101244.83
2023-05-13T22:33:22.642Z,101245.75
2023-05-13T22:35:55.024Z,101245.49
2023-05-13T22:38:27.443Z,101251.42
2023-05-13T22:40:59.794Z,101252.41
2023-05-13T22:43:32.166Z,101252.52
2023-05-13T22:46:04.578Z,101258.91
2023-05-13T22:48:36.718Z,101254.54
2023-05-13T22:51:09.236Z,101252.41
2023-05-13T22:53:41.442Z,101251.58
2023-05-13T22:56:13.946Z,101252.67
2023-05-13T22:58:46.237Z,101254.39
2023-05-13T23:01:18.999Z,101255.66
2023-05-13T23:03:51.283Z,101254.83
2023-05-13T23:06:23.298Z,101242.75
2023-05-13T23:08:55.796Z,101254.91
2023-05-13T23:11:28.156Z,101255.42
2023-05-13T23:14:00.736Z,101254.16
2023-05-13T23:16:33.142Z,101256.70
2023-05-13T23:19:05.955Z,101256.73
2023-05-13T23:21:38.688Z,101248.81
2023-05-13T23:24:11.430Z,101258.58
2023-05-13T23:26:46.462Z,101255.23
2023-05-13T23:29:19.629Z,101250.64
2023-05-13T23:31:51.877Z,101243.77
2023-05-13T23:34:24.099Z,101243.86
2023-05-13T23:36:56.375Z,101238.58
2023-05-13T23:39:28.498Z,101230.15
2023-05-13T23:42:00.871Z,101227.71
2023-05-13T23:44:33.434Z,101225.13
2023-05-13T23:47:05.874Z,101221.83
2023-05-13T23:49:37.960Z,101218.99
2023-05-13T23:52:10.608Z,101222.05
2023-05-13T23:54:42.792Z,101222.63
2023-05-13T23:57:14.975Z,101225.17
2023-05-13T23:59:47.018Z,101207.17
